createdAt,value
2022-12-31T00:01:03.606Z,11.58
2022-12-31T00:03:30.109Z,11.21
2022-12-31T00:05:57.961Z,11.70
2022-12-31T00:08:24.364Z,11.14
2022-12-31T00:10:50.829Z,11.66
2022-12-31T00:13:17.284Z,11.43
2022-12-31T00:15:44.186Z,11.89
2022-12-31T00:18:10.801Z,11.30
2022-12-31T00:20:39.289Z,12.05
2022-12-31T00:23:07.967Z,11.52
2022-12-31T00:25:34.908Z,11.55
2022-12-31T00:28:01.367Z,12.10
2022-12-31T00:30:27.741Z,11.68
2022-12-31T00:32:54.397Z,11.63
2022-12-31T00:35:20.781Z,11.83
2022-12-31T00:37:47.099Z,11.76
2022-12-31T00:40:14.887Z,11.75
2022-12-31T00:42:41.281Z,11.44
2022-12-31T00:45:08.719Z,11.73
2022-12-31T00:47:35.350Z,11.86
2022-12-31T00:50:01.767Z,11.72
2022-12-31T00:52:28.133Z,11.46
2022-12-31T00:54:54.497Z,11.49
2022-12-31T00:57:22.217Z,12.03
2022-12-31T00:59:48.562Z,12.43
2022-12-31T01:02:15.048Z,12.28
2022-12-31T01:04:41.579Z,12.04
2022-12-31T01:07:07.987Z,12.47
2022-12-31T01:09:34.328Z,11.91
2022-12-31T01:12:00.690Z,12.12
2022-12-31T01:14:28.449Z,12.13
2022-12-31T01:16:54.820Z,11.92
2022-12-31T01:19:23.918Z,12.13
2022-12-31T01:21:50.944Z,12.19
2022-12-31T01:24:18.609Z,11.70
2022-12-31T01:26:45.302Z,12.52
2022-12-31T01:29:12.392Z,11.77
2022-12-31T01:31:40.521Z,12.02
2022-12-31T01:34:07.107Z,12.02
2022-12-31T01:36:34.548Z,12.18
2022-12-31T01:39:03.320Z,12.51
2022-12-31T01:41:31.635Z,12.04
2022-12-31T01:44:00.116Z,11.74
2022-12-31T01:46:33.112Z,11.63
2022-12-31T01:49:09.219Z,12.00
2022-12-31T01:51:37.212Z,11.75
2022-12-31T01:54:08.087Z,12.02
2022-12-31T01:56:36.021Z,11.90
2022-12-31T01:59:06.472Z,12.01
2022-12-31T02:01:33.490Z,12.02
2022-12-31T02:04:06.787Z,11.96
2022-12-31T02:06:38.728Z,11.99
2022-12-31T02:09:05.205Z,11.95
2022-12-31T02:11:33.372Z,12.04
2022-12-31T02:14:04.199Z,12.02
2022-12-31T02:16:40.508Z,11.84
2022-12-31T02:19:31.848Z,12.05
2022-12-31T02:22:03.571Z,11.85
2022-12-31T02:24:48.203Z,11.94
2022-12-31T02:27:26.584Z,11.93
2022-12-31T02:30:08.958Z,12.24
2022-12-31T02:32:47.168Z,12.37
2022-12-31T02:35:20.436Z,12.14
2022-12-31T02:37:50.756Z,12.11
2022-12-31T02:40:21.765Z,11.79
2022-12-31T02:42:54.881Z,12.05
2022-12-31T02:45:26.805Z,12.02
2022-12-31T02:48:05.142Z,11.90
2022-12-31T02:50:41.842Z,11.87
2022-12-31T02:53:24.925Z,11.99
2022-12-31T02:55:59.893Z,12.19
2022-12-31T02:58:33.517Z,12.26
2022-12-31T03:01:01.689Z,12.17
2022-12-31T03:03:28.696Z,12.12
2022-12-31T03:05:56.830Z,12.21
2022-12-31T03:08:25.187Z,12.18
2022-12-31T03:10:52.057Z,12.00
2022-12-31T03:13:18.612Z,11.95
2022-12-31T03:15:44.988Z,12.05
2022-12-31T03:18:15.096Z,11.87
2022-12-31T03:20:43.994Z,12.11
2022-12-31T03:23:12.957Z,12.04
2022-12-31T03:25:39.355Z,11.98
2022-12-31T03:28:08.252Z,11.82
2022-12-31T03:30:36.165Z,12.12
2022-12-31T03:33:02.988Z,12.36
2022-12-31T03:35:33.313Z,12.00
2022-12-31T03:38:00.114Z,12.55
2022-12-31T03:40:29.821Z,12.18
2022-12-31T03:42:56.261Z,12.05
2022-12-31T03:45:24.036Z,11.80
2022-12-31T03:47:50.685Z,12.11
2022-12-31T03:50:18.527Z,12.06
2022-12-31T03:52:46.758Z,11.99
2022-12-31T03:55:13.676Z,11.88
2022-12-31T03:57:40.690Z,11.86
2022-12-31T04:00:10.687Z,12.25
2022-12-31T04:02:37.417Z,11.89
2022-12-31T04:05:04.967Z,12.08
2022-12-31T04:07:31.494Z,12.02
2022-12-31T04:09:59.273Z,11.74
2022-12-31T04:12:25.674Z,12.18
2022-12-31T04:14:52.048Z,11.87
2022-12-31T04:17:18.440Z,11.74
2022-12-31T04:19:44.857Z,11.83
2022-12-31T04:22:11.302Z,12.27
2022-12-31T04:24:37.659Z,12.03
2022-12-31T04:27:07.868Z,11.84
2022-12-31T04:29:35.285Z,11.63
2022-12-31T04:32:01.882Z,11.77
2022-12-31T04:34:28.304Z,12.78
2022-12-31T04:36:54.825Z,12.44
2022-12-31T04:39:21.194Z,12.33
2022-12-31T04:41:47.691Z,12.42
2022-12-31T04:44:16.273Z,12.36
2022-12-31T04:46:42.855Z,12.82
2022-12-31T04:49:09.258Z,12.41
2022-12-31T04:51:36.098Z,13.00
2022-12-31T04:54:02.724Z,13.04
2022-12-31T04:56:29.826Z,13.31
2022-12-31T04:58:56.482Z,12.86
2022-12-31T05:01:24.723Z,13.02
2022-12-31T05:03:51.284Z,12.78
2022-12-31T05:06:19.409Z,12.76
2022-12-31T05:08:46.783Z,12.83
2022-12-31T05:11:13.567Z,13.19
2022-12-31T05:13:40.083Z,13.36
2022-12-31T05:16:07.151Z,13.34
2022-12-31T05:18:35.799Z,13.55
2022-12-31T05:21:02.471Z,13.27
2022-12-31T05:23:29.263Z,12.81
2022-12-31T05:25:55.624Z,12.87
2022-12-31T05:28:22.053Z,13.58
2022-12-31T05:30:50.104Z,13.49
2022-12-31T05:33:16.947Z,13.72
2022-12-31T05:35:44.852Z,13.81
2022-12-31T05:38:11.582Z,13.35
2022-12-31T05:40:37.940Z,13.10
2022-12-31T05:43:04.495Z,13.19
2022-12-31T05:45:31.306Z,12.98
2022-12-31T05:47:57.979Z,12.92
2022-12-31T05:50:24.633Z,13.07
2022-12-31T05:52:52.328Z,13.51
2022-12-31T05:55:18.865Z,12.69
2022-12-31T05:57:45.278Z,13.56
2022-12-31T06:00:12.990Z,13.55
2022-12-31T06:02:39.422Z,13.46
2022-12-31T06:05:06.648Z,12.99
2022-12-31T06:07:33.397Z,12.36
2022-12-31T06:10:01.114Z,12.91
2022-12-31T06:12:27.481Z,12.48
2022-12-31T06:14:53.846Z,12.55
2022-12-31T06:17:20.238Z,12.74
2022-12-31T06:19:46.866Z,13.33
2022-12-31T06:22:13.431Z,12.99
2022-12-31T06:24:39.793Z,12.88
2022-12-31T06:27:07.525Z,13.29
2022-12-31T06:29:33.891Z,13.35
2022-12-31T06:32:00.384Z,13.34
2022-12-31T06:34:26.811Z,13.60
2022-12-31T06:36:53.310Z,13.43
2022-12-31T06:39:19.721Z,13.46
2022-12-31T06:41:46.086Z,13.10
2022-12-31T06:44:13.805Z,13.04
2022-12-31T06:46:40.283Z,13.24
2022-12-31T06:49:06.738Z,13.31
2022-12-31T06:51:33.136Z,13.39
2022-12-31T06:53:59.525Z,13.08
2022-12-31T06:56:33.513Z,13.21
2022-12-31T06:59:01.578Z,13.42
2022-12-31T07:01:39.316Z,12.88
2022-12-31T07:04:20.293Z,12.58
2022-12-31T07:06:51.768Z,12.87
2022-12-31T07:09:26.874Z,12.56
2022-12-31T07:12:01.256Z,12.46
2022-12-31T07:14:35.849Z,12.10
2022-12-31T07:17:16.951Z,12.50
2022-12-31T07:19:57.455Z,12.12
2022-12-31T07:22:24.924Z,12.60
2022-12-31T07:24:52.002Z,12.82
2022-12-31T07:27:35.961Z,13.15
2022-12-31T07:30:04.469Z,12.47
2022-12-31T07:32:56.718Z,13.29
2022-12-31T07:35:35.208Z,13.22
2022-12-31T07:38:12.402Z,12.63
2022-12-31T07:40:53.488Z,12.90
2022-12-31T07:43:31.431Z,13.73
2022-12-31T07:46:07.083Z,13.11
2022-12-31T07:48:35.387Z,13.70
2022-12-31T07:51:02.233Z,13.03
2022-12-31T07:53:29.085Z,13.50
2022-12-31T07:55:57.732Z,13.44
2022-12-31T07:58:31.835Z,13.66
2022-12-31T08:00:59.826Z,13.43
2022-12-31T08:03:43.411Z,13.89
2022-12-31T08:06:14.700Z,12.87
2022-12-31T08:08:51.564Z,13.41
2022-12-31T08:11:27.840Z,13.00
2022-12-31T08:13:54.931Z,13.52
2022-12-31T08:16:21.774Z,13.66
2022-12-31T08:18:50.378Z,13.46
2022-12-31T08:21:34.495Z,13.39
2022-12-31T08:24:10.725Z,13.17
2022-12-31T08:26:41.324Z,13.34
2022-12-31T08:29:23.300Z,13.19
2022-12-31T08:31:59.469Z,13.30
2022-12-31T08:34:35.129Z,13.36
2022-12-31T08:37:10.580Z,13.58
2022-12-31T08:39:57.976Z,14.01
2022-12-31T08:42:32.227Z,13.58
2022-12-31T08:45:07.850Z,13.44
2022-12-31T08:47:45.473Z,13.24
2022-12-31T08:50:18.307Z,13.23
2022-12-31T08:52:45.695Z,13.55
2022-12-31T08:55:17.513Z,14.18
2022-12-31T08:57:53.554Z,13.89
2022-12-31T09:00:21.702Z,14.42
2022-12-31T09:03:05.920Z,13.99
2022-12-31T09:05:47.020Z,14.09
2022-12-31T09:08:21.351Z,14.06
2022-12-31T09:10:57.301Z,13.95
2022-12-31T09:13:31.992Z,14.08
2022-12-31T09:16:07.818Z,14.01
2022-12-31T09:18:39.593Z,13.97
2022-12-31T09:21:09.210Z,13.61
2022-12-31T09:23:36.215Z,13.87
2022-12-31T09:26:10.613Z,13.66
2022-12-31T09:28:47.438Z,13.73
2022-12-31T09:31:17.289Z,13.33
2022-12-31T09:33:50.173Z,13.80
2022-12-31T09:36:26.267Z,13.63
2022-12-31T09:38:57.057Z,13.27
2022-12-31T09:41:47.930Z,13.50
2022-12-31T09:44:43.813Z,13.20
2022-12-31T09:47:31.911Z,13.43
2022-12-31T09:50:22.737Z,13.41
2022-12-31T09:53:08.011Z,13.18
2022-12-31T09:55:39.797Z,13.41
2022-12-31T09:58:21.418Z,13.74
2022-12-31T10:00:53.022Z,13.82
2022-12-31T10:03:33.917Z,13.86
2022-12-31T10:06:15.911Z,13.95
2022-12-31T10:08:58.098Z,14.32
2022-12-31T10:11:33.598Z,14.10
2022-12-31T10:14:18.730Z,14.68
2022-12-31T10:16:59.375Z,14.38
2022-12-31T10:19:50.224Z,14.42
2022-12-31T10:22:38.040Z,14.48
2022-12-31T10:25:38.559Z,14.63
2022-12-31T10:28:14.716Z,14.68
2022-12-31T10:30:48.990Z,15.01
2022-12-31T10:33:16.724Z,14.84
2022-12-31T10:35:51.222Z,14.84
2022-12-31T10:38:26.505Z,15.07
2022-12-31T10:41:31.279Z,15.03
2022-12-31T10:44:43.281Z,15.30
2022-12-31T10:47:31.722Z,15.04
2022-12-31T10:50:22.075Z,15.19
2022-12-31T10:53:11.819Z,15.13
2022-12-31T10:56:16.937Z,15.31
2022-12-31T10:59:08.140Z,15.29
2022-12-31T11:01:47.237Z,15.33
2022-12-31T11:04:47.584Z,15.28
2022-12-31T11:07:34.757Z,15.31
2022-12-31T11:10:20.085Z,15.44
2022-12-31T11:13:22.423Z,15.59
2022-12-31T11:16:06.096Z,15.64
2022-12-31T11:18:43.208Z,15.79
2022-12-31T11:21:27.788Z,15.61
2022-12-31T11:24:04.434Z,15.64
2022-12-31T11:26:46.142Z,15.49
2022-12-31T11:29:30.803Z,15.04
2022-12-31T11:32:26.355Z,14.56
2022-12-31T11:35:12.220Z,14.54
2022-12-31T11:37:45.138Z,14.44
2022-12-31T11:40:35.670Z,14.42
2022-12-31T11:43:11.120Z,14.63
2022-12-31T11:45:59.008Z,14.40
2022-12-31T11:48:31.332Z,14.56
2022-12-31T11:51:15.879Z,14.49
2022-12-31T11:54:08.655Z,14.66
2022-12-31T11:56:40.198Z,15.08
2022-12-31T11:59:18.595Z,15.08
2022-12-31T12:01:55.037Z,14.83
2022-12-31T12:04:21.567Z,14.69
2022-12-31T12:06:50.170Z,15.06
2022-12-31T12:09:28.327Z,14.92
2022-12-31T12:11:59.746Z,14.80
2022-12-31T12:14:32.044Z,15.48
2022-12-31T12:17:04.852Z,14.80
2022-12-31T12:19:33.854Z,15.40
2022-12-31T12:22:10.061Z,15.16
2022-12-31T12:24:36.733Z,15.19
2022-12-31T12:27:03.266Z,15.58
2022-12-31T12:29:32.691Z,15.50
2022-12-31T12:32:00.853Z,15.37
2022-12-31T12:34:29.407Z,15.24
2022-12-31T12:36:56.063Z,15.84
2022-12-31T12:39:25.374Z,15.82
2022-12-31T12:42:03.583Z,15.51
2022-12-31T12:44:30.954Z,15.76
2022-12-31T12:46:58.238Z,15.78
2022-12-31T12:49:27.760Z,15.64
2022-12-31T12:52:21.379Z,15.51
2022-12-31T12:55:04.767Z,15.75
2022-12-31T12:57:40.180Z,15.67
2022-12-31T13:00:17.322Z,15.95
2022-12-31T13:03:01.400Z,15.30
2022-12-31T13:05:44.504Z,15.37
2022-12-31T13:08:26.737Z,15.08
2022-12-31T13:11:10.236Z,15.45
2022-12-31T13:13:42.146Z,15.44
2022-12-31T13:16:16.840Z,15.28
2022-12-31T13:18:54.841Z,15.61
2022-12-31T13:21:32.280Z,15.43
2022-12-31T13:24:05.196Z,15.32
2022-12-31T13:26:39.130Z,15.70
2022-12-31T13:29:11.224Z,15.72
2022-12-31T13:31:40.147Z,15.47
2022-12-31T13:34:13.313Z,15.55
2022-12-31T13:36:43.131Z,15.70
2022-12-31T13:39:16.050Z,15.82
2022-12-31T13:41:50.038Z,15.74
2022-12-31T13:44:23.633Z,15.55
2022-12-31T13:46:55.909Z,15.52
2022-12-31T13:49:27.000Z,15.66
2022-12-31T13:51:57.763Z,15.71
2022-12-31T13:54:34.505Z,15.93
2022-12-31T13:57:05.481Z,15.65
2022-12-31T13:59:38.616Z,15.66
2022-12-31T14:02:25.285Z,15.90
2022-12-31T14:04:56.424Z,15.98
2022-12-31T14:07:35.379Z,15.95
2022-12-31T14:10:12.319Z,15.96
2022-12-31T14:12:49.665Z,16.18
2022-12-31T14:15:23.088Z,16.09
2022-12-31T14:17:55.531Z,15.86
2022-12-31T14:20:31.028Z,15.88
2022-12-31T14:23:07.190Z,16.36
2022-12-31T14:25:39.362Z,16.02
2022-12-31T14:28:15.710Z,15.82
2022-12-31T14:30:44.448Z,15.81
2022-12-31T14:33:27.750Z,15.92
2022-12-31T14:36:10.399Z,16.09
2022-12-31T14:38:57.238Z,15.99
2022-12-31T14:41:35.710Z,15.86
2022-12-31T14:44:17.894Z,15.99
2022-12-31T14:46:59.208Z,16.04
2022-12-31T14:49:39.652Z,15.84
2022-12-31T14:52:20.909Z,16.39
2022-12-31T14:54:58.111Z,16.05
2022-12-31T14:57:26.590Z,16.07
2022-12-31T14:59:56.884Z,15.87
2022-12-31T15:02:26.414Z,15.97
2022-12-31T15:05:05.229Z,16.16
2022-12-31T15:07:41.837Z,15.91
2022-12-31T15:10:16.417Z,15.87
2022-12-31T15:13:04.943Z,15.99
2022-12-31T15:16:00.100Z,15.87
2022-12-31T15:18:36.537Z,15.79
2022-12-31T15:21:22.904Z,15.78
2022-12-31T15:23:49.296Z,15.89
2022-12-31T15:26:22.771Z,15.80
2022-12-31T15:28:59.334Z,15.87
2022-12-31T15:31:27.701Z,15.79
2022-12-31T15:33:57.614Z,15.76
2022-12-31T15:36:26.724Z,15.93
2022-12-31T15:39:05.933Z,15.77
2022-12-31T15:41:37.994Z,15.90
2022-12-31T15:44:12.144Z,15.83
2022-12-31T15:46:42.512Z,15.83
2022-12-31T15:49:15.845Z,16.04
2022-12-31T15:51:44.547Z,15.92
2022-12-31T15:54:21.920Z,15.81
2022-12-31T15:56:48.948Z,15.76
2022-12-31T15:59:18.347Z,15.86
2022-12-31T16:01:47.385Z,15.87
2022-12-31T16:04:19.395Z,15.95
2022-12-31T16:06:50.599Z,15.89
2022-12-31T16:09:21.555Z,16.00
2022-12-31T16:11:48.597Z,15.92
2022-12-31T16:14:20.221Z,15.99
2022-12-31T16:16:54.677Z,15.87
2022-12-31T16:19:30.636Z,15.87
2022-12-31T16:22:00.505Z,16.06
2022-12-31T16:24:29.643Z,16.12
2022-12-31T16:26:59.669Z,15.66
2022-12-31T16:29:26.349Z,15.75
2022-12-31T16:31:54.505Z,15.74
2022-12-31T16:34:23.422Z,15.63
2022-12-31T16:37:00.672Z,16.17
2022-12-31T16:39:29.990Z,15.90
2022-12-31T16:42:08.731Z,15.88
2022-12-31T16:44:35.238Z,15.85
2022-12-31T16:47:03.847Z,15.74
2022-12-31T16:49:33.189Z,15.77
2022-12-31T16:52:04.452Z,15.58
2022-12-31T16:54:35.344Z,16.04
2022-12-31T16:57:02.373Z,15.99
2022-12-31T16:59:35.198Z,16.07
2022-12-31T17:02:11.527Z,16.18
2022-12-31T17:04:45.095Z,15.91
2022-12-31T17:07:36.983Z,15.73
2022-12-31T17:10:12.938Z,15.68
2022-12-31T17:13:24.898Z,15.65
2022-12-31T17:15:40.016Z,16.14
2022-12-31T17:18:14.775Z,15.75
2022-12-31T17:20:41.147Z,15.82
2022-12-31T17:23:09.072Z,15.80
2022-12-31T17:25:37.825Z,16.03
2022-12-31T17:28:07.035Z,15.83
2022-12-31T17:30:39.134Z,15.96
2022-12-31T17:33:28.194Z,15.75
2022-12-31T17:35:55.911Z,15.80
2022-12-31T17:38:31.124Z,15.62
2022-12-31T17:41:09.281Z,15.79
2022-12-31T17:43:37.695Z,15.84
2022-12-31T17:46:10.879Z,15.89
2022-12-31T17:48:38.844Z,15.90
2022-12-31T17:51:05.686Z,15.49
2022-12-31T17:53:32.386Z,15.69
2022-12-31T17:56:02.388Z,15.71
2022-12-31T17:58:31.455Z,15.88
2022-12-31T18:00:59.228Z,15.60
2022-12-31T18:03:25.822Z,15.88
2022-12-31T18:05:53.855Z,15.83
2022-12-31T18:08:20.253Z,15.79
2022-12-31T18:10:47.175Z,15.71
2022-12-31T18:13:16.400Z,15.66
2022-12-31T18:15:43.135Z,16.03
2022-12-31T18:18:22.530Z,15.86
2022-12-31T18:20:54.543Z,15.88
2022-12-31T18:23:23.595Z,15.73
2022-12-31T18:25:49.952Z,16.04
2022-12-31T18:28:16.405Z,15.69
2022-12-31T18:30:44.225Z,15.87
2022-12-31T18:33:12.259Z,16.00
2022-12-31T18:38:27.090Z,15.86
2022-12-31T18:40:56.252Z,15.93
2022-12-31T18:43:23.376Z,15.99
2022-12-31T18:45:50.846Z,15.92
2022-12-31T18:48:18.253Z,16.13
2022-12-31T18:50:45.634Z,16.15
2022-12-31T18:53:16.247Z,15.81
2022-12-31T18:55:47.202Z,15.86
2022-12-31T18:58:13.661Z,15.86
2022-12-31T19:00:40.183Z,16.00
2022-12-31T19:03:06.682Z,15.82
2022-12-31T19:05:36.317Z,16.01
2022-12-31T19:08:02.672Z,15.94
2022-12-31T19:10:29.134Z,15.89
2022-12-31T19:12:56.930Z,15.95
2022-12-31T19:15:26.658Z,15.74
2022-12-31T19:17:53.084Z,15.73
2022-12-31T19:20:19.752Z,15.82
2022-12-31T19:22:46.160Z,16.10
2022-12-31T19:25:18.952Z,15.94
2022-12-31T19:27:45.376Z,16.17
2022-12-31T19:30:17.463Z,15.81
2022-12-31T19:32:43.884Z,15.83
2022-12-31T19:35:12.028Z,15.87
2022-12-31T19:37:38.614Z,16.18
2022-12-31T19:40:06.106Z,16.22
2022-12-31T19:42:32.492Z,15.75
2022-12-31T19:44:58.859Z,16.03
2022-12-31T19:47:26.557Z,16.07
2022-12-31T19:49:52.938Z,15.85
2022-12-31T19:52:19.297Z,15.93
2022-12-31T19:54:45.878Z,15.93
2022-12-31T19:57:12.336Z,16.06
2022-12-31T19:59:38.680Z,15.95
2022-12-31T20:02:05.314Z,16.19
2022-12-31T20:04:33.108Z,16.01
2022-12-31T20:06:59.454Z,16.15
2022-12-31T20:09:25.877Z,15.90
2022-12-31T20:11:52.237Z,15.75
2022-12-31T20:14:18.577Z,15.98
2022-12-31T20:16:44.981Z,15.82
2022-12-31T20:19:11.414Z,15.93
2022-12-31T20:21:39.135Z,15.79
2022-12-31T20:24:06.051Z,16.33
2022-12-31T20:26:32.499Z,16.08
2022-12-31T20:28:58.820Z,15.75
2022-12-31T20:31:27.726Z,15.80
2022-12-31T20:33:55.100Z,15.66
2022-12-31T20:36:22.449Z,16.01
2022-12-31T20:38:50.351Z,15.78
2022-12-31T20:41:18.678Z,15.92
2022-12-31T20:43:45.756Z,15.86
2022-12-31T20:46:15.684Z,15.64
2022-12-31T20:48:42.436Z,15.85
2022-12-31T20:51:08.886Z,15.50
2022-12-31T20:53:35.342Z,15.79
2022-12-31T20:56:05.601Z,15.73
2022-12-31T20:58:32.402Z,15.77
2022-12-31T21:00:59.238Z,15.67
2022-12-31T21:04:03.010Z,15.83
2022-12-31T21:06:13.506Z,15.57
2022-12-31T21:08:40.287Z,15.86
2022-12-31T21:11:08.878Z,15.52
2022-12-31T21:13:35.299Z,15.70
2022-12-31T21:16:01.740Z,15.82
2022-12-31T21:18:28.150Z,15.85
2022-12-31T21:20:54.574Z,15.62
2022-12-31T21:23:20.930Z,15.68
2022-12-31T21:25:49.183Z,15.73
2022-12-31T21:28:16.903Z,15.75
2022-12-31T21:30:43.388Z,15.81
2022-12-31T21:33:09.766Z,15.70
2022-12-31T21:35:50.097Z,15.81
2022-12-31T21:38:19.896Z,15.80
2022-12-31T21:40:46.409Z,15.84
2022-12-31T21:43:13.405Z,15.83
2022-12-31T21:45:42.005Z,15.69
2022-12-31T21:48:12.091Z,15.96
2022-12-31T21:50:38.486Z,15.70
2022-12-31T21:53:04.917Z,15.53
2022-12-31T21:55:31.321Z,15.84
2022-12-31T21:58:25.316Z,15.90
2022-12-31T22:00:45.351Z,15.86
2022-12-31T22:03:12.808Z,16.23
2022-12-31T22:05:46.897Z,16.37
2022-12-31T22:08:13.346Z,16.13
2022-12-31T22:10:42.826Z,16.09
2022-12-31T22:13:16.336Z,16.22
2022-12-31T22:15:42.973Z,16.11
2022-12-31T22:18:11.126Z,16.47
2022-12-31T22:20:37.539Z,16.23
2022-12-31T22:23:04.440Z,16.22
2022-12-31T22:25:32.653Z,16.28
2022-12-31T22:28:36.354Z,16.09
2022-12-31T22:30:47.145Z,16.37
2022-12-31T22:33:15.023Z,16.17
2022-12-31T22:35:41.455Z,16.14
2022-12-31T22:38:11.927Z,16.02
2022-12-31T22:40:38.812Z,16.35
2022-12-31T22:43:05.176Z,16.36
2022-12-31T22:45:31.538Z,16.31
2022-12-31T22:47:57.919Z,16.20
2022-12-31T22:50:25.598Z,16.32
2022-12-31T22:52:51.956Z,16.30
2022-12-31T22:55:18.353Z,16.33
2022-12-31T22:57:44.733Z,16.32
2022-12-31T23:00:13.717Z,16.11
2022-12-31T23:02:42.260Z,16.21
2022-12-31T23:05:16.228Z,16.36
2022-12-31T23:07:44.428Z,16.15
2022-12-31T23:10:10.840Z,16.39
2022-12-31T23:12:37.242Z,16.27
2022-12-31T23:15:04.816Z,16.32
2022-12-31T23:17:32.200Z,16.20
2022-12-31T23:19:58.784Z,15.93
2022-12-31T23:22:25.152Z,16.02
2022-12-31T23:24:52.859Z,16.18
2022-12-31T23:27:19.235Z,16.58
2022-12-31T23:29:47.424Z,16.01
2022-12-31T23:32:15.158Z,16.04
2022-12-31T23:34:42.833Z,15.98
2022-12-31T23:37:09.263Z,15.94
2022-12-31T23:39:35.645Z,16.47
2022-12-31T23:42:03.608Z,16.20
2022-12-31T23:44:29.997Z,16.25
2022-12-31T23:46:56.466Z,16.01
2022-12-31T23:49:23.004Z,16.00
2022-12-31T23:51:49.405Z,16.09
2022-12-31T23:54:15.765Z,16.33
2022-12-31T23:56:42.209Z,16.35
2022-12-31T23:59:11.313Z,16.49
